createdAt,value
2022-12-01T00:01:24.385Z,101135.97
2022-12-01T00:04:25.942Z,101128.25
2022-12-01T00:07:27.527Z,101133.84
2022-12-01T00:10:29.132Z,101124.87
2022-12-01T00:13:30.763Z,101123.75
2022-12-01T00:16:33.467Z,101122.72
2022-12-01T00:19:35.154Z,101124.00
2022-12-01T00:22:36.704Z,101126.97
2022-12-01T00:25:38.335Z,101125.09
2022-12-01T00:28:39.952Z,101135.84
2022-12-01T00:31:42.174Z,101143.47
2022-12-01T00:34:43.761Z,101142.91
2022-12-01T00:37:45.296Z,101148.31
2022-12-01T00:40:46.866Z,101149.63
2022-12-01T00:43:48.455Z,101143.38
2022-12-01T00:46:50.054Z,101156.88
2022-12-01T00:49:52.407Z,101153.19
2022-12-01T00:52:53.965Z,101151.13
2022-12-01T00:55:55.586Z,101147.16
2022-12-01T00:58:57.324Z,101143.75
2022-12-01T01:01:59.023Z,101137.84
2022-12-01T01:05:00.581Z,101141.84
2022-12-01T01:08:02.144Z,101126.91
2022-12-01T01:11:04.977Z,101122.53
2022-12-01T01:14:07.385Z,101126.38
2022-12-01T01:17:08.972Z,101122.34
2022-12-01T01:20:11.015Z,101121.81
2022-12-01T01:23:12.556Z,101123.44
2022-12-01T01:26:18.497Z,101120.25
2022-12-01T01:29:20.066Z,101133.34
2022-12-01T01:32:21.824Z,101128.56
2022-12-01T01:35:23.384Z,101126.44
2022-12-01T01:38:24.921Z,101117.06
2022-12-01T01:41:26.498Z,101119.66
2022-12-01T01:44:49.102Z,101119.41
2022-12-01T01:47:52.829Z,101110.81
2022-12-01T01:50:54.913Z,101107.16
2022-12-01T01:54:02.343Z,101106.22
2022-12-01T01:57:07.536Z,101100.19
2022-12-01T02:00:12.536Z,101108.31
2022-12-01T02:03:16.883Z,101109.69
2022-12-01T02:06:18.572Z,101107.78
2022-12-01T02:09:20.120Z,101109.53
2022-12-01T02:12:49.379Z,101114.91
2022-12-01T02:15:53.922Z,101095.47
2022-12-01T02:19:35.908Z,101093.00
2022-12-01T02:23:00.974Z,101091.06
2022-12-01T02:26:19.422Z,101089.62
2022-12-01T02:29:32.974Z,101088.63
2022-12-01T02:32:45.475Z,101090.31
2022-12-01T02:36:12.627Z,101095.94
2022-12-01T02:39:30.481Z,101097.75
2022-12-01T02:42:49.892Z,101101.91
2022-12-01T02:46:31.306Z,101110.50
2022-12-01T02:49:36.836Z,101109.34
2022-12-01T02:52:41.130Z,101107.78
2022-12-01T02:55:51.706Z,101107.50
2022-12-01T02:58:53.465Z,101103.78
2022-12-01T03:02:01.384Z,101094.94
2022-12-01T03:05:26.628Z,101095.31
2022-12-01T03:09:16.736Z,101096.91
2022-12-01T03:12:24.384Z,101099.00
2022-12-01T03:15:45.040Z,101104.19
2022-12-01T03:19:24.939Z,101106.72
2022-12-01T03:22:37.823Z,101104.81
2022-12-01T03:25:43.350Z,101097.34
2022-12-01T03:28:52.342Z,101093.72
2022-12-01T03:32:13.144Z,101091.78
2022-12-01T03:35:20.684Z,101080.75
2022-12-01T03:38:24.613Z,101081.06
2022-12-01T03:41:33.260Z,101077.56
2022-12-01T03:44:47.791Z,101073.81
2022-12-01T03:47:49.392Z,101077.44
2022-12-01T03:51:12.403Z,101082.66
2022-12-01T03:54:21.416Z,101080.38
2022-12-01T03:57:31.884Z,101078.53
2022-12-01T04:00:33.953Z,101080.66
2022-12-01T04:03:35.603Z,101087.63
2022-12-01T04:06:37.494Z,101077.06
2022-12-01T04:09:41.436Z,101077.44
2022-12-01T04:12:43.006Z,101079.09
2022-12-01T04:15:44.585Z,101077.56
2022-12-01T04:18:46.511Z,101076.03
2022-12-01T04:21:48.091Z,101079.38
2022-12-01T04:24:49.782Z,101081.78
2022-12-01T04:27:51.573Z,101079.06
2022-12-01T04:30:53.340Z,101085.25
2022-12-01T04:33:56.177Z,101090.97
2022-12-01T04:36:57.758Z,101090.53
2022-12-01T04:39:59.304Z,101092.97
2022-12-01T04:43:00.846Z,101089.59
2022-12-01T04:46:02.903Z,101081.34
2022-12-01T04:49:05.552Z,101083.47
2022-12-01T04:52:07.563Z,101094.81
2022-12-01T04:55:09.613Z,101089.78
2022-12-01T04:58:11.170Z,101091.41
2022-12-01T05:01:14.907Z,101101.75
2022-12-01T05:04:16.678Z,101100.09
2022-12-01T05:07:18.321Z,101114.87
2022-12-01T05:10:20.256Z,101119.81
2022-12-01T05:13:21.817Z,101134.31
2022-12-01T05:16:25.840Z,101128.37
2022-12-01T05:19:46.196Z,101125.19
2022-12-01T05:23:04.961Z,101123.09
2022-12-01T05:26:14.359Z,101125.47
2022-12-01T05:29:16.184Z,101134.69
2022-12-01T05:32:17.728Z,101133.88
2022-12-01T05:35:19.341Z,101136.06
2022-12-01T05:38:21.144Z,101121.06
2022-12-01T05:41:22.789Z,101123.28
2022-12-01T05:44:24.346Z,101121.81
2022-12-01T05:47:25.891Z,101130.12
2022-12-01T05:50:29.375Z,101121.56
2022-12-01T05:53:31.140Z,101125.75
2022-12-01T05:56:32.696Z,101121.19
2022-12-01T05:59:34.295Z,101116.22
2022-12-01T06:02:35.853Z,101127.53
2022-12-01T06:05:37.418Z,101116.56
2022-12-01T06:08:38.975Z,101116.06
2022-12-01T06:11:40.682Z,101122.47
2022-12-01T06:14:42.570Z,101115.78
2022-12-01T06:17:44.309Z,101122.34
2022-12-01T06:20:45.995Z,101122.84
2022-12-01T06:23:47.721Z,101118.91
2022-12-01T06:26:49.401Z,101115.81
2022-12-01T06:29:51.161Z,101120.72
2022-12-01T06:32:53.017Z,101119.47
2022-12-01T06:35:59.284Z,101114.59
2022-12-01T06:39:00.842Z,101123.56
2022-12-01T06:42:02.439Z,101111.03
2022-12-01T06:45:04.236Z,101122.97
2022-12-01T06:48:05.991Z,101118.69
2022-12-01T06:51:07.721Z,101126.56
2022-12-01T06:54:11.631Z,101123.69
2022-12-01T06:57:13.336Z,101126.72
2022-12-01T07:00:15.635Z,101129.66
2022-12-01T07:03:17.597Z,101135.66
2022-12-01T07:06:19.182Z,101127.25
2022-12-01T07:09:20.790Z,101132.28
2022-12-01T07:12:24.701Z,101125.22
2022-12-01T07:15:28.697Z,101129.81
2022-12-01T07:18:31.127Z,101123.31
2022-12-01T07:21:32.696Z,101118.94
2022-12-01T07:24:34.341Z,101119.44
2022-12-01T07:27:36.091Z,101127.78
2022-12-01T07:30:37.679Z,101120.78
2022-12-01T07:33:39.672Z,101126.88
2022-12-01T07:36:41.399Z,101133.53
2022-12-01T07:39:43.150Z,101128.06
2022-12-01T07:42:44.692Z,101132.06
2022-12-01T07:45:46.568Z,101133.81
2022-12-01T07:48:48.908Z,101125.88
2022-12-01T07:51:50.485Z,101137.44
2022-12-01T07:54:52.744Z,101130.50
2022-12-01T07:57:54.328Z,101130.03
2022-12-01T08:00:55.990Z,101127.00
2022-12-01T08:03:59.327Z,101134.22
2022-12-01T08:07:00.943Z,101134.97
2022-12-01T08:10:02.583Z,101121.31
2022-12-01T08:13:04.501Z,101123.06
2022-12-01T08:16:08.250Z,101132.72
2022-12-01T08:19:10.952Z,101124.28
2022-12-01T08:22:12.485Z,101132.34
2022-12-01T08:25:14.168Z,101122.56
2022-12-01T08:28:15.731Z,101121.63
2022-12-01T08:31:25.148Z,101122.78
2022-12-01T08:34:27.345Z,101106.56
2022-12-01T08:37:28.908Z,101115.63
2022-12-01T08:40:30.846Z,101117.56
2022-12-01T08:43:56.706Z,101122.72
2022-12-01T08:46:54.581Z,101123.84
2022-12-01T08:49:56.226Z,101124.72
2022-12-01T08:52:57.776Z,101113.00
2022-12-01T08:56:01.811Z,101114.94
2022-12-01T08:59:03.980Z,101119.38
2022-12-01T09:02:07.312Z,101117.75
2022-12-01T09:05:09.309Z,101127.78
2022-12-01T09:08:29.554Z,101122.59
2022-12-01T09:11:31.187Z,101113.19
2022-12-01T09:14:38.742Z,101120.12
2022-12-01T09:17:40.343Z,101118.50
2022-12-01T09:20:41.889Z,101114.28
2022-12-01T09:23:43.485Z,101119.34
2022-12-01T09:26:45.097Z,101116.44
2022-12-01T09:29:46.977Z,101109.03
2022-12-01T09:32:48.656Z,101101.97
2022-12-01T09:35:50.297Z,101100.25
2022-12-01T09:38:52.062Z,101101.59
2022-12-01T09:41:59.473Z,101097.16
2022-12-01T09:45:04.378Z,101095.59
2022-12-01T09:48:07.809Z,101092.66
2022-12-01T09:51:17.250Z,101091.50
2022-12-01T09:54:18.940Z,101097.97
2022-12-01T09:57:36.645Z,101098.91
2022-12-01T10:00:42.991Z,101093.44
2022-12-01T10:03:53.153Z,101087.25
2022-12-01T10:06:54.617Z,101085.81
2022-12-01T10:09:59.246Z,101086.25
2022-12-01T10:13:00.935Z,101079.19
2022-12-01T10:16:07.873Z,101085.09
2022-12-01T10:19:41.251Z,101079.81
2022-12-01T10:22:50.643Z,101076.63
2022-12-01T10:25:52.094Z,101068.38
2022-12-01T10:29:08.968Z,101068.25
2022-12-01T10:32:30.641Z,101063.91
2022-12-01T10:35:37.677Z,101065.53
2022-12-01T10:38:39.343Z,101061.06
2022-12-01T10:41:41.469Z,101053.50
2022-12-01T10:44:44.311Z,101046.47
2022-12-01T10:48:24.323Z,101048.47
2022-12-01T10:51:27.905Z,101045.28
2022-12-01T10:54:34.133Z,101047.03
2022-12-01T10:57:37.595Z,101039.19
2022-12-01T11:01:09.495Z,101045.62
2022-12-01T11:04:21.270Z,101048.81
2022-12-01T11:07:29.777Z,101039.88
2022-12-01T11:10:37.364Z,101040.03
2022-12-01T11:13:41.986Z,101039.56
2022-12-01T11:16:49.405Z,101045.31
2022-12-01T11:19:51.205Z,101045.50
2022-12-01T11:22:54.190Z,101045.62
2022-12-01T11:26:14.031Z,101037.06
2022-12-01T11:29:38.917Z,101035.16
2022-12-01T11:32:40.579Z,101037.94
2022-12-01T11:35:48.767Z,101035.28
2022-12-01T11:38:54.945Z,101032.16
2022-12-01T11:42:02.147Z,101035.69
2022-12-01T11:45:03.616Z,101028.50
2022-12-01T11:48:17.295Z,101035.12
2022-12-01T11:51:21.549Z,101028.78
2022-12-01T11:54:25.727Z,101033.34
2022-12-01T11:57:34.986Z,101037.53
2022-12-01T12:00:54.488Z,101028.69
2022-12-01T12:04:04.610Z,101035.22
2022-12-01T12:07:24.903Z,101036.09
2022-12-01T12:10:32.599Z,101030.44
2022-12-01T12:13:52.133Z,101038.16
2022-12-01T12:17:09.088Z,101038.34
2022-12-01T12:20:52.674Z,101029.22
2022-12-01T12:24:36.783Z,101037.66
2022-12-01T12:28:08.419Z,101030.91
2022-12-01T12:31:44.258Z,101029.56
2022-12-01T12:34:58.934Z,101023.63
2022-12-01T12:38:00.427Z,101025.91
2022-12-01T12:41:29.913Z,101025.41
2022-12-01T12:44:50.542Z,101022.44
2022-12-01T12:48:05.805Z,101022.50
2022-12-01T12:51:10.434Z,101021.06
2022-12-01T12:54:12.080Z,101020.28
2022-12-01T12:57:34.794Z,101017.81
2022-12-01T13:00:42.345Z,101006.03
2022-12-01T13:03:59.667Z,101010.34
2022-12-01T13:07:15.247Z,101004.41
2022-12-01T13:10:48.201Z,101013.56
2022-12-01T13:13:49.647Z,101017.53
2022-12-01T13:16:56.272Z,101009.75
2022-12-01T13:19:57.855Z,101020.31
2022-12-01T13:23:02.495Z,101019.94
2022-12-01T13:26:08.216Z,101004.78
2022-12-01T13:29:23.375Z,101014.94
2022-12-01T13:32:30.572Z,101007.22
2022-12-01T13:35:37.454Z,101009.22
2022-12-01T13:38:40.154Z,100999.53
2022-12-01T13:41:44.289Z,101010.16
2022-12-01T13:44:55.722Z,100999.72
2022-12-01T13:48:01.577Z,101007.13
2022-12-01T13:51:04.082Z,101002.66
2022-12-01T13:54:26.460Z,101005.56
2022-12-01T13:57:30.621Z,101010.44
2022-12-01T14:00:34.998Z,101010.75
2022-12-01T14:03:40.828Z,101005.12
2022-12-01T14:06:50.573Z,101003.66
2022-12-01T14:09:56.166Z,100994.62
2022-12-01T14:13:02.705Z,101002.47
2022-12-01T14:16:05.324Z,101005.66
2022-12-01T14:19:25.828Z,101006.87
2022-12-01T14:22:38.334Z,101015.09
2022-12-01T14:25:41.610Z,101005.25
2022-12-01T14:28:55.466Z,101001.94
2022-12-01T14:31:59.973Z,101005.50
2022-12-01T14:35:04.991Z,101000.81
2022-12-01T14:38:10.148Z,101003.97
2022-12-01T14:41:22.695Z,101005.50
2022-12-01T14:44:38.089Z,100998.47
2022-12-01T14:47:44.596Z,101002.06
2022-12-01T14:50:50.307Z,101012.66
2022-12-01T14:53:52.543Z,101016.03
2022-12-01T14:57:02.697Z,101014.94
2022-12-01T15:00:12.751Z,101011.56
2022-12-01T15:03:14.779Z,101012.44
2022-12-01T15:06:19.412Z,101012.44
2022-12-01T15:09:33.368Z,101009.69
2022-12-01T15:12:44.380Z,101008.78
2022-12-01T15:16:03.747Z,101007.41
2022-12-01T15:19:32.403Z,101011.09
2022-12-01T15:22:33.965Z,101012.47
2022-12-01T15:25:37.078Z,101011.34
2022-12-01T15:28:38.613Z,101010.97
2022-12-01T15:31:40.737Z,101012.66
2022-12-01T15:34:48.366Z,101017.88
2022-12-01T15:37:52.572Z,101013.97
2022-12-01T15:44:27.254Z,101002.53
2022-12-01T15:47:43.823Z,101004.34
2022-12-01T15:50:59.168Z,101008.34
2022-12-01T15:54:02.938Z,101007.22
2022-12-01T15:57:05.981Z,101013.88
2022-12-01T16:00:18.693Z,101017.16
2022-12-01T16:03:20.296Z,101021.16
2022-12-01T16:06:28.730Z,101021.31
2022-12-01T16:10:03.096Z,101016.78
2022-12-01T16:13:42.239Z,101018.66
2022-12-01T16:16:46.411Z,101023.87
2022-12-01T16:19:48.255Z,101023.03
2022-12-01T16:22:58.931Z,101018.22
2022-12-01T16:26:02.137Z,101022.59
2022-12-01T16:29:19.942Z,101015.53
2022-12-01T16:32:27.766Z,101017.31
2022-12-01T16:35:32.509Z,101020.84
2022-12-01T16:38:34.686Z,101027.66
2022-12-01T16:41:39.156Z,101026.16
2022-12-01T16:44:42.077Z,101028.56
2022-12-01T16:47:46.072Z,101026.28
2022-12-01T16:50:48.950Z,101035.97
2022-12-01T16:53:51.212Z,101034.81
2022-12-01T16:56:53.212Z,101036.34
2022-12-01T16:59:55.171Z,101033.50
2022-12-01T17:02:58.035Z,101031.16
2022-12-01T17:06:04.527Z,101033.87
2022-12-01T17:09:06.373Z,101030.34
2022-12-01T17:12:08.005Z,101032.91
2022-12-01T17:15:10.420Z,101035.06
2022-12-01T17:18:13.042Z,101030.59
2022-12-01T17:21:14.895Z,101028.88
2022-12-01T17:24:19.230Z,101039.81
2022-12-01T17:27:23.493Z,101040.81
2022-12-01T17:30:25.560Z,101031.47
2022-12-01T17:33:27.676Z,101025.12
2022-12-01T17:36:29.692Z,101031.41
2022-12-01T17:39:31.862Z,101032.25
2022-12-01T17:42:34.047Z,101030.94
2022-12-01T17:45:35.612Z,101036.94
2022-12-01T17:48:39.275Z,101042.44
2022-12-01T17:51:41.789Z,101044.47
2022-12-01T17:54:43.560Z,101040.06
2022-12-01T17:57:45.257Z,101041.16
2022-12-01T18:00:48.723Z,101046.72
2022-12-01T18:03:51.021Z,101049.44
2022-12-01T18:06:54.525Z,101049.66
2022-12-01T18:09:56.667Z,101050.47
2022-12-01T18:12:58.341Z,101048.53
2022-12-01T18:16:00.756Z,101044.03
2022-12-01T18:19:04.118Z,101041.44
2022-12-01T18:22:05.745Z,101039.75
2022-12-01T18:25:07.884Z,101036.91
2022-12-01T18:28:12.519Z,101039.09
2022-12-01T18:31:16.385Z,101042.25
2022-12-01T18:34:18.325Z,101042.41
2022-12-01T18:37:21.128Z,101041.47
2022-12-01T18:40:27.334Z,101046.44
2022-12-01T18:43:31.374Z,101045.62
2022-12-01T18:46:33.678Z,101050.63
2022-12-01T18:49:35.554Z,101052.28
2022-12-01T18:52:40.720Z,101053.47
2022-12-01T18:55:42.725Z,101060.06
2022-12-01T18:58:44.310Z,101059.22
2022-12-01T19:01:48.067Z,101065.06
2022-12-01T19:04:50.710Z,101054.78
2022-12-01T19:07:55.818Z,101063.50
2022-12-01T19:11:03.521Z,101060.22
2022-12-01T19:14:05.505Z,101065.09
2022-12-01T19:17:07.559Z,101077.00
2022-12-01T19:20:10.128Z,101066.53
2022-12-01T19:23:12.246Z,101070.91
2022-12-01T19:26:19.982Z,101071.69
2022-12-01T19:29:22.220Z,101073.59
2022-12-01T19:32:24.283Z,101066.41
2022-12-01T19:35:26.365Z,101068.09
2022-12-01T19:38:28.000Z,101068.63
2022-12-01T19:41:30.098Z,101068.22
2022-12-01T19:44:32.168Z,101068.84
2022-12-01T19:47:34.999Z,101064.59
2022-12-01T19:50:36.888Z,101074.69
2022-12-01T19:53:38.465Z,101071.53
2022-12-01T19:56:41.285Z,101067.87
2022-12-01T19:59:43.420Z,101068.66
2022-12-01T20:02:46.598Z,101069.91
2022-12-01T20:05:48.674Z,101076.34
2022-12-01T20:08:51.437Z,101076.88
2022-12-01T20:11:54.237Z,101087.63
2022-12-01T20:14:56.289Z,101080.69
2022-12-01T20:17:58.265Z,101084.31
2022-12-01T20:21:20.076Z,101076.47
2022-12-01T20:24:23.276Z,101074.28
2022-12-01T20:27:25.639Z,101087.47
2022-12-01T20:30:28.484Z,101079.78
2022-12-01T20:33:30.827Z,101086.31
2022-12-01T20:36:33.026Z,101097.06
2022-12-01T20:39:37.376Z,101087.16
2022-12-01T20:42:40.133Z,101090.25
2022-12-01T20:45:42.267Z,101102.31
2022-12-01T20:48:44.664Z,101098.81
2022-12-01T20:51:47.365Z,101103.56
2022-12-01T20:54:49.471Z,101104.84
2022-12-01T20:58:00.496Z,101105.84
2022-12-01T21:01:11.741Z,101107.78
2022-12-01T21:04:14.075Z,101106.72
2022-12-01T21:07:15.703Z,101107.59
2022-12-01T21:10:20.160Z,101103.00
2022-12-01T21:13:41.991Z,101104.63
2022-12-01T21:16:48.321Z,101099.44
2022-12-01T21:20:11.700Z,101105.59
2022-12-01T21:23:16.038Z,101107.78
2022-12-01T21:26:19.032Z,101100.81
2022-12-01T21:29:22.098Z,101106.25
2022-12-01T21:32:34.478Z,101113.28
2022-12-01T21:35:36.038Z,101108.09
2022-12-01T21:38:37.642Z,101112.22
2022-12-01T21:41:39.415Z,101111.06
2022-12-01T21:44:41.035Z,101119.75
2022-12-01T21:47:42.621Z,101119.97
2022-12-01T21:50:48.104Z,101129.19
2022-12-01T21:53:56.357Z,101125.03
2022-12-01T21:56:58.672Z,101128.44
2022-12-01T22:00:29.284Z,101128.72
2022-12-01T22:03:33.753Z,101124.50
2022-12-01T22:06:40.229Z,101127.84
2022-12-01T22:09:41.777Z,101122.03
2022-12-01T22:12:43.333Z,101120.03
2022-12-01T22:15:44.988Z,101118.69
2022-12-01T22:18:52.513Z,101123.28
2022-12-01T22:22:02.904Z,101122.38
2022-12-01T22:25:27.704Z,101120.47
2022-12-01T22:28:29.250Z,101119.44
2022-12-01T22:31:31.482Z,101120.34
2022-12-01T22:34:34.403Z,101117.81
2022-12-01T22:37:59.772Z,101124.78
2022-12-01T22:41:01.304Z,101119.03
2022-12-01T22:44:02.967Z,101115.28
2022-12-01T22:47:04.957Z,101113.62
2022-12-01T22:50:32.370Z,101115.37
2022-12-01T22:53:33.925Z,101118.59
2022-12-01T22:56:39.657Z,101108.56
2022-12-01T22:59:43.533Z,101104.22
2022-12-01T23:02:48.467Z,101101.50
2022-12-01T23:05:55.579Z,101096.56
2022-12-01T23:08:57.117Z,101097.25
2022-12-01T23:12:05.101Z,101090.06
2022-12-01T23:15:36.438Z,101092.69
2022-12-01T23:18:38.080Z,101098.91
2022-12-01T23:21:39.669Z,101094.97
2022-12-01T23:24:41.361Z,101103.75
2022-12-01T23:27:45.033Z,101107.09
2022-12-01T23:30:49.558Z,101102.06
2022-12-01T23:33:51.598Z,101102.06
2022-12-01T23:36:53.174Z,101103.66
2022-12-01T23:39:55.831Z,101101.84
2022-12-01T23:43:15.899Z,101105.38
2022-12-01T23:46:24.170Z,101109.22
2022-12-01T23:49:30.138Z,101092.97
2022-12-01T23:52:36.383Z,101102.53
2022-12-01T23:55:37.944Z,101106.78
2022-12-01T23:58:39.494Z,101108.25
